createdAt,value
2022-08-21T00:04:54.548Z,94.40
2022-08-21T00:10:09.986Z,94.90
2022-08-21T00:15:14.932Z,95.00
2022-08-21T00:20:20.556Z,95.40
2022-08-21T00:25:26.316Z,95.30
2022-08-21T00:30:30.968Z,95.10
2022-08-21T00:35:39.574Z,94.30
2022-08-21T00:40:47.534Z,94.30
2022-08-21T00:45:51.226Z,95.70
2022-08-21T00:50:58.776Z,95.70
2022-08-21T00:56:05.497Z,96.00
2022-08-21T01:01:09.913Z,97.40
2022-08-21T01:06:19.365Z,98.20
2022-08-21T01:11:26.705Z,97.40
2022-08-21T01:16:33.502Z,97.60
2022-08-21T01:21:38.406Z,97.40
2022-08-21T01:26:44.951Z,98.20
2022-08-21T01:31:49.221Z,97.80
2022-08-21T01:36:54.645Z,98.20
2022-08-21T01:41:58.740Z,98.30
2022-08-21T01:47:32.176Z,97.80
2022-08-21T01:52:38.468Z,99.90
2022-08-21T01:57:44.101Z,99.90
2022-08-21T02:02:47.626Z,99.70
2022-08-21T02:07:53.751Z,98.20
2022-08-21T02:12:57.659Z,99.40
2022-08-21T02:18:05.201Z,99.60
2022-08-21T02:23:10.821Z,99.70
2022-08-21T02:28:15.704Z,99.90
2022-08-21T02:33:19.447Z,99.90
2022-08-21T02:38:25.593Z,99.90
2022-08-21T02:43:29.587Z,99.90
2022-08-21T02:48:36.483Z,99.90
2022-08-21T02:53:43.985Z,99.90
2022-08-21T02:58:49.141Z,99.90
2022-08-21T03:03:54.820Z,99.90
2022-08-21T03:09:00.164Z,99.90
2022-08-21T03:14:04.196Z,99.90
2022-08-21T03:19:08.305Z,99.90
2022-08-21T03:24:15.708Z,99.90
2022-08-21T03:29:25.483Z,99.90
2022-08-21T03:34:29.289Z,99.90
2022-08-21T03:39:34.524Z,99.90
2022-08-21T03:44:40.806Z,99.90
2022-08-21T03:49:47.632Z,99.90
2022-08-21T03:54:53.366Z,99.90
2022-08-21T04:00:00.707Z,99.90
2022-08-21T04:05:09.348Z,99.90
2022-08-21T04:10:18.134Z,99.90
2022-08-21T04:15:22.785Z,99.90
2022-08-21T04:20:30.641Z,99.90
2022-08-21T04:25:36.656Z,99.90
2022-08-21T04:30:43.775Z,99.90
2022-08-21T04:35:47.217Z,99.90
2022-08-21T04:40:52.086Z,99.90
2022-08-21T04:45:55.777Z,99.90
2022-08-21T04:51:01.358Z,99.90
2022-08-21T04:56:08.231Z,99.90
2022-08-21T05:01:15.384Z,99.90
2022-08-21T05:06:19.179Z,99.90
2022-08-21T05:11:23.888Z,99.90
2022-08-21T05:16:36.871Z,99.90
2022-08-21T05:21:44.824Z,99.90
2022-08-21T05:26:49.946Z,99.90
2022-08-21T05:31:53.291Z,99.90
2022-08-21T05:36:56.625Z,99.90
2022-08-21T05:42:01.501Z,99.90
2022-08-21T05:47:11.826Z,99.90
2022-08-21T05:52:21.493Z,99.90
2022-08-21T05:57:26.568Z,99.90
2022-08-21T06:02:30.233Z,99.90
2022-08-21T06:07:34.122Z,99.90
2022-08-21T06:12:39.432Z,99.90
2022-08-21T06:17:46.350Z,99.90
2022-08-21T06:22:49.748Z,99.90
2022-08-21T06:27:55.128Z,99.90
2022-08-21T06:33:00.084Z,99.90
2022-08-21T06:38:06.055Z,99.90
2022-08-21T06:43:15.159Z,99.90
2022-08-21T06:48:22.381Z,99.90
2022-08-21T06:53:26.985Z,97.40
2022-08-21T06:58:32.485Z,96.50
2022-08-21T07:03:39.242Z,95.80
2022-08-21T07:08:43.714Z,94.30
2022-08-21T07:13:53.353Z,91.40
2022-08-21T07:19:00.867Z,91.00
2022-08-21T07:24:05.056Z,90.20
2022-08-21T07:29:12.124Z,87.70
2022-08-21T07:34:17.448Z,87.80
2022-08-21T07:39:24.490Z,84.90
2022-08-21T07:44:30.022Z,87.10
2022-08-21T07:49:43.185Z,83.70
2022-08-21T07:54:46.751Z,80.50
2022-08-21T07:59:55.077Z,77.40
2022-08-21T08:05:02.124Z,76.40
2022-08-21T08:10:26.403Z,74.30
2022-08-21T08:15:36.983Z,74.30
2022-08-21T08:20:52.153Z,70.30
2022-08-21T08:25:55.989Z,70.40
2022-08-21T08:31:05.480Z,68.50
2022-08-21T08:43:16.501Z,66.00
2022-08-21T08:48:46.349Z,64.80
2022-08-21T08:53:58.894Z,66.30
2022-08-21T08:59:15.558Z,66.40
2022-08-21T09:04:27.871Z,65.90
2022-08-21T09:09:37.031Z,64.00
2022-08-21T09:15:12.692Z,61.20
2022-08-21T09:20:44.603Z,58.70
2022-08-21T09:26:16.146Z,59.20
2022-08-21T09:31:26.233Z,60.60
2022-08-21T09:36:37.031Z,58.40
2022-08-21T09:41:45.768Z,58.60
2022-08-21T09:47:15.379Z,59.10
2022-08-21T09:52:24.148Z,58.70
2022-08-21T09:57:46.646Z,58.60
2022-08-21T10:02:57.537Z,56.50
2022-08-21T10:08:05.624Z,57.10
2022-08-21T10:13:20.108Z,56.30
2022-08-21T10:18:33.235Z,56.30
2022-08-21T10:23:48.405Z,54.90
2022-08-21T10:29:03.365Z,55.50
2022-08-21T10:34:19.559Z,55.90
2022-08-21T10:39:35.843Z,55.60
2022-08-21T10:44:44.008Z,55.60
2022-08-21T10:49:50.383Z,57.10
2022-08-21T10:55:01.688Z,55.10
2022-08-21T11:00:09.428Z,55.80
2022-08-21T11:05:19.163Z,56.30
2022-08-21T11:10:27.902Z,54.70
2022-08-21T11:15:42.634Z,52.90
2022-08-21T11:20:49.763Z,56.00
2022-08-21T11:25:57.998Z,53.30
2022-08-21T11:31:10.430Z,53.70
2022-08-21T11:36:29.330Z,53.40
2022-08-21T11:41:49.310Z,52.80
2022-08-21T11:47:00.228Z,55.00
2022-08-21T11:52:13.805Z,55.40
2022-08-21T11:57:41.238Z,54.50
2022-08-21T12:02:54.976Z,54.00
2022-08-21T12:08:09.715Z,52.70
2022-08-21T12:13:40.339Z,52.70
2022-08-21T12:18:45.818Z,52.00
2022-08-21T12:23:53.150Z,50.70
2022-08-21T12:29:25.489Z,51.60
2022-08-21T12:34:37.891Z,48.60
2022-08-21T12:39:47.742Z,50.90
2022-08-21T12:44:59.325Z,50.70
2022-08-21T12:50:07.834Z,50.60
2022-08-21T12:55:16.869Z,49.70
2022-08-21T13:00:23.878Z,50.40
2022-08-21T13:05:33.012Z,48.20
2022-08-21T13:10:39.397Z,46.50
2022-08-21T13:15:47.754Z,45.70
2022-08-21T13:20:53.890Z,44.20
2022-08-21T13:25:58.297Z,46.80
2022-08-21T13:31:03.654Z,47.30
2022-08-21T13:36:19.520Z,45.90
2022-08-21T13:41:25.691Z,46.30
2022-08-21T13:46:42.903Z,48.00
2022-08-21T13:51:53.145Z,46.20
2022-08-21T13:57:00.273Z,46.90
2022-08-21T14:02:12.922Z,48.70
2022-08-21T14:07:29.601Z,46.10
2022-08-21T14:12:39.455Z,46.60
2022-08-21T14:17:50.320Z,46.40
2022-08-21T14:22:54.328Z,45.40
2022-08-21T14:27:59.878Z,47.90
2022-08-21T14:33:11.773Z,49.10
2022-08-21T14:38:17.298Z,48.90
2022-08-21T14:43:22.233Z,47.30
2022-08-21T14:48:27.722Z,45.60
2022-08-21T14:53:34.897Z,46.20
2022-08-21T14:58:39.850Z,46.80
2022-08-21T15:03:48.583Z,47.40
2022-08-21T15:09:07.440Z,46.00
2022-08-21T15:14:20.986Z,44.60
2022-08-21T15:19:28.453Z,44.50
2022-08-21T15:24:38.125Z,44.50
2022-08-21T15:29:42.976Z,48.20
2022-08-21T15:34:49.473Z,45.30
2022-08-21T15:39:54.431Z,44.00
2022-08-21T15:45:00.236Z,47.00
2022-08-21T15:50:10.971Z,49.00
2022-08-21T15:55:16.715Z,51.00
2022-08-21T16:00:23.035Z,50.10
2022-08-21T16:05:33.933Z,51.20
2022-08-21T16:10:38.815Z,50.70
2022-08-21T16:15:42.645Z,51.70
2022-08-21T16:20:48.142Z,51.00
2022-08-21T16:25:51.701Z,52.90
2022-08-21T16:30:57.192Z,52.80
2022-08-21T16:36:02.253Z,54.00
2022-08-21T16:41:12.680Z,52.80
2022-08-21T16:46:43.471Z,53.40
2022-08-21T16:51:48.851Z,51.70
2022-08-21T16:56:54.200Z,54.10
2022-08-21T17:01:58.228Z,54.10
2022-08-21T17:07:03.576Z,52.10
2022-08-21T17:12:08.317Z,49.70
2022-08-21T17:17:17.756Z,48.70
2022-08-21T17:22:23.366Z,49.00
2022-08-21T17:27:36.137Z,51.30
2022-08-21T17:32:42.484Z,53.00
2022-08-21T17:37:54.394Z,54.30
2022-08-21T17:42:58.647Z,55.30
2022-08-21T17:48:04.715Z,57.00
2022-08-21T17:53:14.523Z,57.20
2022-08-21T17:58:24.398Z,56.60
2022-08-21T18:03:32.771Z,63.60
2022-08-21T18:08:44.926Z,62.50
2022-08-21T18:13:49.372Z,64.90
2022-08-21T18:18:59.777Z,66.10
2022-08-21T18:24:05.942Z,68.10
2022-08-21T18:29:35.348Z,69.00
2022-08-21T18:34:50.988Z,69.30
2022-08-21T18:39:56.663Z,68.80
2022-08-21T18:45:03.122Z,67.40
2022-08-21T18:50:10.726Z,67.20
2022-08-21T18:55:27.960Z,68.30
2022-08-21T19:00:45.516Z,69.30
2022-08-21T19:05:49.428Z,70.90
2022-08-21T19:11:06.733Z,69.70
2022-08-21T19:16:10.352Z,71.20
2022-08-21T19:21:16.193Z,72.50
2022-08-21T19:26:26.551Z,71.70
2022-08-21T19:36:56.904Z,72.50
2022-08-21T19:42:03.004Z,72.40
2022-08-21T19:47:19.022Z,72.80
2022-08-21T19:52:22.946Z,73.20
2022-08-21T19:57:30.383Z,73.00
2022-08-21T20:02:34.478Z,73.00
2022-08-21T20:07:39.286Z,72.40
2022-08-21T20:12:47.888Z,73.10
2022-08-21T20:17:57.706Z,72.60
2022-08-21T20:23:10.630Z,72.50
2022-08-21T20:28:22.429Z,72.50
2022-08-21T20:33:29.772Z,73.30
2022-08-21T20:38:34.233Z,72.50
2022-08-21T20:43:39.609Z,73.70
2022-08-21T20:48:49.048Z,73.30
2022-08-21T20:53:57.527Z,73.20
2022-08-21T20:59:08.905Z,72.50
2022-08-21T21:04:19.534Z,73.70
2022-08-21T21:09:31.971Z,73.50
2022-08-21T21:14:40.738Z,73.80
2022-08-21T21:19:52.109Z,74.30
2022-08-21T21:24:57.959Z,74.50
2022-08-21T21:30:14.486Z,75.40
2022-08-21T21:35:32.264Z,75.80
2022-08-21T21:40:46.764Z,76.30
2022-08-21T21:46:04.163Z,75.90
2022-08-21T21:56:36.483Z,75.80
2022-08-21T22:01:52.163Z,75.40
2022-08-21T22:07:01.717Z,76.80
2022-08-21T22:12:18.614Z,76.60
2022-08-21T22:17:33.546Z,77.70
2022-08-21T22:22:37.268Z,78.60
2022-08-21T22:27:41.356Z,79.60
2022-08-21T22:32:49.083Z,79.40
2022-08-21T22:37:57.721Z,79.70
2022-08-21T22:43:02.600Z,80.70
2022-08-21T22:53:33.440Z,80.40
2022-08-21T22:58:38.076Z,80.70
2022-08-21T23:03:48.043Z,81.80
2022-08-21T23:08:55.261Z,82.20
2022-08-21T23:13:59.504Z,83.50
2022-08-21T23:19:07.995Z,84.30
2022-08-21T23:24:19.855Z,84.50
2022-08-21T23:29:28.150Z,85.00
2022-08-21T23:34:44.639Z,85.50
2022-08-21T23:39:56.457Z,84.50
2022-08-21T23:45:14.068Z,83.80
2022-08-21T23:50:24.045Z,83.80
2022-08-21T23:55:44.642Z,83.90
